Terminal Aerodrome Forecast
Issued by NWS

Home | Current Version | Previous Version | Text Only | Print | Product List | Glossary On
Versions: 1 2 3 4 5 6 7 8 9 10 11 12 13 14 15 16 17 18 19 20 21 22 23
000
FTUS46 KLOX 302300
TAFSBP
TAF
KSBP 302340Z 3100/3124 31012KT P6SM SCT150 BKN250
     FM310300 31007KT P6SM SCT150 BKN250
     FM310900 VRB03KT P6SM BKN006
     FM311100 VRB03KT P6SM OVC004
     FM311600 VRB03KT P6SM SCT250
     FM311800 27004KT P6SM SCT250
     FM312000 29011KT P6SM SKC=

USA.gov is the U.S. government's official web portal to all federal, state and local government web resources and services.